This is the latest recevied weather packets stored in our database for station/object JI8TEY-15. If no packets are shown the sender has not sent any weather packets the latest 10 day(s).
| Time | Temp. | Humidity | Pressure | Rain* | Wind** | Luminosity | Snow |
|---|---|---|---|---|---|---|---|
| 1777975055 | 15° C | 56% | 1008 hPa | 0 mm | - | - | - |
| 1777971454 | 16.11° C | 56% | 1007 hPa | 0 mm | - | - | - |
| 1777967855 | 16.11° C | 56% | 1007 hPa | 0 mm | - | - | - |
| 1777964253 | 16.11° C | 55% | 1008 hPa | 0 mm | - | - | - |
| 1777960654 | 17.78° C | 55% | 1008 hPa | 0 mm | - | - | - |
| 1777957055 | 20° C | 54% | 1007 hPa | 0 mm | - | - | - |
| 1777953453 | 19.44° C | 54% | 1008 hPa | 0 mm | - | - | - |
| 1777949854 | 18.33° C | 54% | 1009 hPa | 0 mm | - | - | - |
| 1777946254 | 16.67° C | 55% | 1008 hPa | 0 mm | - | - | - |
| 1777942654 | 14.44° C | 56% | 1009 hPa | 0 mm | - | - | - |
| 1777939054 | 12.22° C | 57% | 1010 hPa | 0 mm | - | - | - |
| 1777935455 | 10.56° C | 58% | 1010 hPa | 0 mm | - | - | - |
| 1777931853 | 10° C | 58% | 1010 hPa | 0 mm | - | - | - |
| 1777928255 | 6.11° C | 82% | 1009 hPa | 0 mm | - | - | - |
| 1777924654 | 5.56° C | 82% | 1008 hPa | 0 mm | - | - | - |
| 1777921055 | 5.56° C | 82% | 1006 hPa | 0 mm | - | - | - |
| 1777917454 | 5.56° C | 86% | 1005 hPa | 0 mm | - | - | - |
| 1777913855 | 5° C | 89% | 1003 hPa | 0 mm | - | - | - |
| 1777910255 | 4.44° C | 95% | 1002 hPa | 0 mm | - | - | - |
| 1777906653 | 2.78° C | 99% | 1000 hPa | 0 mm | - | - | - |
| 1777903054 | 2.78° C | 99% | 997 hPa | 1.02 mm | - | - | - |
| 1777899455 | 3.89° C | 99% | 996 hPa | 0 mm | - | - | - |
| 1777895854 | 4.44° C | 99% | 994 hPa | 1.02 mm | - | - | - |
| 1777892254 | 5.56° C | 99% | 991 hPa | 1.27 mm | - | - | - |
| 1777888653 | 7.22° C | 97% | 989 hPa | 0 mm | - | - | - |
* Rain latest hour (hover to see other rain measurements)
** Current wind speed in m/s (hover to see current wind gust speed)